Terminal Aerodrome Forecast
Issued by NWS Billings, MT

Home | Current Version | Previous Version | Graphics & Text | Print | Product List | Glossary On
Versions: 1 2 3 4 5 6 7 8 9 10 11 12
000
FTUS45 KBYZ 110520
TAFMLS
TAF
KMLS 110520Z 1106/1206 29006KT P6SM OVC200
     FM111200 31012KT P6SM SCT200=

USA.gov is the U.S. government's official web portal to all federal, state and local government web resources and services.